Time;durP1;ratioP1;P1;durP2;ratioP2;P2;SDS_P1;SDS_P2;PMS_P1;PMS_P2;Temp;Humidity;BMP_temperature;BMP_pressure;BME280_temperature;BME280_humidity;BME280_pressure;Samples;Min_cycle;Max_cycle;Signal;HPM_P1;HPM_P2
2022/12/17 13:08:23;;;;;;;1999.90;999.90;;;;;;;-1.08;73.77;100199.28;10284921;23;20025;-81
2022/12/17 13:12:29;;;;;;;1999.90;999.90;;;;;;;-1.04;73.67;100191.03;10284795;23;20059;-81
2022/12/17 13:16:52;;;;;;;1999.90;999.90;;;;;;;-0.99;73.23;100192.16;10276830;23;20067;-81
2022/12/17 13:20:58;;;;;;;;;;;;;;;-0.97;72.87;100192.22;10282264;23;20112;-81
2022/12/17 13:25:21;;;;;;;1999.90;999.90;;;;;;;-0.96;72.55;100188.88;10303237;23;19923;-81
2022/12/17 13:29:34;;;;;;;1999.90;999.90;;;;;;;-0.93;71.98;100183.94;10280630;23;20035;-81
2022/12/17 13:33:56;;;;;;;;;;;;;;;-0.92;72.81;100173.84;10274703;23;20054;-80
2022/12/17 13:39:08;;;;;;;1999.90;999.90;;;;;;;-0.90;72.13;100176.47;10283768;23;20242;-80
2022/12/17 13:43:50;;;;;;;1999.90;999.90;;;;;;;-0.89;71.50;100178.25;10277183;23;20017;-80
2022/12/17 13:47:55;;;;;;;1999.90;999.90;;;;;;;-0.87;71.04;100186.84;10270678;23;20268;-80
2022/12/17 13:52:05;;;;;;;1999.90;999.90;;;;;;;-0.85;70.75;100175.06;10280293;23;20082;-80
2022/12/17 13:56:11;;;;;;;1999.90;999.90;;;;;;;-0.83;70.93;100176.00;10280340;23;20028;-80
2022/12/17 14:00:25;;;;;;;1999.90;999.90;;;;;;;-0.81;70.49;100179.53;10274517;23;20104;-79
2022/12/17 14:04:29;;;;;;;1999.90;999.90;;;;;;;-0.78;70.37;100176.25;10280868;23;20059;-79
2022/12/17 14:08:31;;;;;;;1999.90;999.90;;;;;;;-0.77;70.44;100181.44;10280649;23;20078;-79
2022/12/17 14:12:34;;;;;;;1999.90;999.90;;;;;;;-0.75;70.48;100173.84;10279198;23;20028;-79
2022/12/17 14:16:36;;;;;;;1999.90;999.90;;;;;;;-0.76;70.47;100178.09;10267012;23;20029;-78
2022/12/17 14:20:39;;;;;;;1999.90;999.90;;;;;;;-0.77;70.95;100183.09;10250809;23;20513;-79
2022/12/17 14:24:40;;;;;;;1999.90;999.90;;;;;;;-0.78;71.17;100187.31;10273075;23;20038;-78
2022/12/17 14:28:52;;;;;;;1999.90;999.90;;;;;;;-0.81;71.02;100184.63;10274220;23;20059;-79
2022/12/17 14:32:54;;;;;;;1999.90;999.90;;;;;;;-0.84;70.86;100191.22;10268982;23;20029;-79
2022/12/17 14:36:58;;;;;;;1999.90;999.90;;;;;;;-0.89;70.92;100191.00;10276482;23;20431;-78
2022/12/17 14:50:16;;;;;;;1999.90;999.90;;;;;;;-1.07;71.22;100211.25;10278526;23;20016;-78
2022/12/17 14:54:31;;;;;;;1999.90;999.90;;;;;;;-1.11;71.53;100214.41;10278554;23;20030;-78
2022/12/17 14:58:44;;;;;;;1999.90;999.90;;;;;;;-1.17;71.73;100223.41;10254028;23;20056;-78
2022/12/17 15:02:51;;;;;;;1999.90;999.90;;;;;;;-1.26;72.27;100222.13;10278256;23;20048;-78
2022/12/17 15:06:54;;;;;;;1999.90;999.90;;;;;;;-1.28;71.89;100228.75;10296878;23;20476;-78
2022/12/17 15:10:55;;;;;;;1999.90;999.90;;;;;;;-1.34;72.29;100222.47;10277335;23;20028;-78
2022/12/17 15:14:57;;;;;;;1999.90;999.90;;;;;;;-1.43;72.46;100225.38;10295999;23;20483;-79
2022/12/17 15:18:59;;;;;;;1999.90;999.90;;;;;;;-1.51;72.62;100231.69;10270582;23;20134;-78
2022/12/17 15:23:02;;;;;;;1999.90;999.90;;;;;;;-1.62;72.92;100223.44;10251642;23;20384;-78
2022/12/17 15:27:03;;;;;;;1999.90;999.90;;;;;;;-1.71;73.83;100222.94;10279220;23;20391;-76
2022/12/17 15:31:05;;;;;;;1999.90;999.90;;;;;;;-1.79;73.60;100218.19;10270377;23;20112;-78
2022/12/17 15:35:07;;;;;;;1999.90;999.90;;;;;;;-1.87;74.11;100222.81;10277354;23;20024;-78
2022/12/17 15:39:10;;;;;;;1999.90;999.90;;;;;;;-1.97;74.60;100221.44;10279179;23;20096;-78
2022/12/17 15:43:12;;;;;;;1999.90;999.90;;;;;;;-2.08;74.39;100209.72;10279381;23;20365;-79
2022/12/17 15:47:13;;;;;;;1999.90;999.90;;;;;;;-2.15;74.90;100218.69;10270884;23;20028;-78
2022/12/17 15:51:15;;;;;;;1999.90;999.90;;;;;;;-2.22;74.70;100225.84;10277053;23;20074;-78
2022/12/17 15:55:20;;;;;;;1999.90;999.90;;;;;;;-2.37;75.30;100223.25;10279353;23;20025;-78
2022/12/17 15:59:22;;;;;;;1999.90;999.90;;;;;;;-2.50;76.48;100226.75;10276354;23;20025;-79
2022/12/17 16:03:23;;;;;;;1999.90;999.90;;;;;;;-2.62;76.47;100232.75;10241417;23;20377;-79
2022/12/17 16:07:25;;;;;;;1999.90;999.90;;;;;;;-2.76;77.14;100229.34;10273336;23;20361;-79
2022/12/17 16:11:26;;;;;;;1999.90;999.90;;;;;;;-2.84;77.53;100226.34;10274487;23;20055;-79
2022/12/17 16:15:29;;;;;;;1999.90;999.90;;;;;;;-2.95;78.07;100224.78;10268235;23;20111;-79
2022/12/17 16:19:30;;;;;;;1999.90;999.90;;;;;;;-3.04;78.55;100226.78;10295638;23;20036;-78
2022/12/17 16:23:32;;;;;;;1999.90;999.90;;;;;;;-3.10;78.56;100231.44;10291249;23;20059;-78
2022/12/17 16:27:33;;;;;;;1999.90;999.90;;;;;;;-3.22;78.96;100229.03;10276886;23;20055;-77
2022/12/17 16:31:36;;;;;;;1999.90;999.90;;;;;;;-3.27;79.41;100237.13;10265407;23;20096;-78
2022/12/17 16:35:37;;;;;;;;;;;;;;;-3.37;79.26;100244.16;10275179;23;20514;-78
2022/12/17 16:39:39;;;;;;;1999.90;999.90;;;;;;;-3.44;79.92;100244.53;10274575;23;20128;-79
2022/12/17 16:43:41;;;;;;;1999.90;999.90;;;;;;;-3.43;79.89;100248.81;10274588;23;20021;-79
2022/12/17 16:47:42;;;;;;;1999.90;999.90;;;;;;;-3.42;79.90;100259.84;10270859;23;20781;-79
2022/12/17 16:51:45;;;;;;;1999.90;999.90;;;;;;;-3.44;79.87;100246.19;10274319;23;20020;-79
2022/12/17 16:55:48;;;;;;;1999.90;999.90;;;;;;;-3.46;80.16;100255.38;10273152;23;20044;-79
2022/12/17 16:59:49;;;;;;;1999.90;999.90;;;;;;;-3.50;79.48;100249.22;10296200;23;20522;-81
2022/12/17 17:03:51;;;;;;;1999.90;999.90;;;;;;;-3.52;79.74;100255.00;10270852;23;20052;-78
2022/12/17 17:07:53;;;;;;;1999.90;999.90;;;;;;;-3.52;80.21;100247.38;10282619;23;20050;-78
2022/12/17 17:11:57;;;;;;;1999.90;999.90;;;;;;;-3.55;80.06;100254.78;10281608;23;20099;-80
2022/12/17 17:15:58;;;;;;;1999.90;999.90;;;;;;;-3.52;80.03;100258.41;10273656;23;20120;-80
2022/12/17 17:20:00;;;;;;;1999.90;999.90;;;;;;;-3.50;79.79;100259.38;10280448;23;20152;-80
2022/12/17 17:24:12;;;;;;;1999.90;999.90;;;;;;;-3.50;80.45;100263.56;10282613;23;20040;-79
2022/12/17 17:28:20;;;;;;;1999.90;999.90;;;;;;;-3.55;79.61;100255.66;10278701;23;20685;-79
2022/12/17 17:32:22;;;;;;;1999.90;999.90;;;;;;;-3.53;79.92;100256.66;10280010;23;20017;-78
2022/12/17 17:36:29;;;;;;;1999.90;999.90;;;;;;;-3.57;80.42;100262.31;10274964;23;20056;-78
2022/12/17 17:40:30;;;;;;;1999.90;999.90;;;;;;;-3.60;80.04;100267.16;10272754;23;20402;-79
2022/12/17 17:44:32;;;;;;;1999.90;999.90;;;;;;;-3.60;80.61;100273.91;10272806;23;20052;-77
2022/12/17 17:48:34;;;;;;;1999.90;999.90;;;;;;;-3.60;80.44;100284.03;10265808;23;20025;-78
2022/12/17 17:52:37;;;;;;;1999.90;999.90;;;;;;;-3.60;80.16;100286.59;10273265;23;20025;-78
2022/12/17 17:56:40;;;;;;;1999.90;999.90;;;;;;;-3.64;80.30;100288.03;10276464;23;20052;-78
2022/12/17 18:00:41;;;;;;;1999.90;999.90;;;;;;;-3.68;81.07;100291.16;10285060;23;20113;-79
2022/12/17 18:04:43;;;;;;;1999.90;999.90;;;;;;;-3.68;80.83;100293.72;10276788;23;20792;-78
2022/12/17 18:08:45;;;;;;;1999.90;999.90;;;;;;;-3.70;81.11;100293.59;10277854;23;20056;-78
2022/12/17 18:17:07;;;;;;;1999.90;999.90;;;;;;;-3.72;81.59;100295.16;10271785;23;20371;-78
2022/12/17 18:21:11;;;;;;;1999.90;999.90;;;;;;;-3.71;82.10;100303.66;10279057;23;20186;-78
2022/12/17 18:25:14;;;;;;;1999.90;999.90;;;;;;;-3.75;82.18;100307.66;10280729;23;20048;-79
2022/12/17 18:29:19;;;;;;;1999.90;999.90;;;;;;;-3.76;81.52;100305.91;10281358;23;20028;-78
2022/12/17 18:33:20;;;;;;;1999.90;999.90;;;;;;;-3.79;81.99;100305.66;10269883;23;20054;-78
2022/12/17 18:37:22;;;;;;;1999.90;999.90;;;;;;;-3.84;81.67;100304.47;10279505;23;20766;-78
2022/12/17 18:45:44;;;;;;;1999.90;999.90;;;;;;;-3.81;81.75;100314.84;10271886;23;20511;-81
2022/12/17 18:49:46;;;;;;;1999.90;999.90;;;;;;;-3.82;82.66;100314.72;10279556;23;20024;-78
2022/12/17 18:53:48;;;;;;;1999.90;999.90;;;;;;;-3.86;82.49;100322.91;10278469;23;20112;-78
2022/12/17 18:57:50;;;;;;;1999.90;999.90;;;;;;;-3.87;82.06;100316.97;10279668;23;20487;-79
2022/12/17 19:01:51;;;;;;;1999.90;999.90;;;;;;;-3.86;82.14;100320.38;10247510;23;20127;-79
2022/12/17 19:05:53;;;;;;;1999.90;999.90;;;;;;;-3.89;81.80;100322.72;10277724;23;20482;-80
2022/12/17 19:09:55;;;;;;;1999.90;999.90;;;;;;;-3.93;82.05;100314.03;10280667;23;20383;-81
2022/12/17 19:13:57;;;;;;;1999.90;999.90;;;;;;;-3.94;81.64;100307.19;10278186;23;20020;-77
2022/12/17 19:17:58;;;;;;;1999.90;999.90;;;;;;;-3.99;81.64;100304.34;10279370;23;20025;-78
2022/12/17 19:22:00;;;;;;;1999.90;999.90;;;;;;;-3.99;81.86;100316.13;10279733;23;20048;-80
2022/12/17 19:26:19;;;;;;;1999.90;999.90;;;;;;;-4.02;81.76;100309.19;10280109;23;20027;-79
2022/12/17 19:30:20;;;;;;;1999.90;999.90;;;;;;;-4.04;82.04;100322.56;10253533;23;20027;-79
2022/12/17 19:34:22;;;;;;;1999.90;999.90;;;;;;;-4.07;81.75;100318.16;10277615;23;20044;-81
2022/12/17 19:38:23;;;;;;;1999.90;999.90;;;;;;;-4.07;81.46;100315.63;10279815;23;20024;-77
2022/12/17 19:42:26;;;;;;;1999.90;999.90;;;;;;;-4.08;81.31;100320.59;10279697;23;20091;-79
2022/12/17 19:46:37;;;;;;;1999.90;999.90;;;;;;;-4.13;81.63;100321.91;10272135;23;20036;-79
2022/12/17 19:50:38;;;;;;;1999.90;999.90;;;;;;;-4.15;81.51;100319.28;10281437;23;20063;-78
2022/12/17 19:54:39;;;;;;;1999.90;999.90;;;;;;;-4.19;81.42;100326.56;10278455;23;20447;-79
2022/12/17 19:58:43;;;;;;;1999.90;999.90;;;;;;;-4.22;81.28;100322.19;10277794;23;20510;-78
2022/12/17 20:02:44;;;;;;;1999.90;999.90;;;;;;;-4.23;81.75;100330.56;10270229;23;20035;-78
2022/12/17 20:06:46;;;;;;;1999.90;999.90;;;;;;;-4.26;81.12;100332.91;10279199;23;20043;-78
2022/12/17 20:10:47;;;;;;;1999.90;999.90;;;;;;;-4.31;80.82;100326.59;10296622;23;20446;-79
2022/12/17 20:14:49;;;;;;;1999.90;999.90;;;;;;;-4.35;81.45;100332.25;10278879;23;20016;-78
2022/12/17 20:18:50;;;;;;;1999.90;999.90;;;;;;;-4.40;80.97;100331.06;10271447;23;20028;-78
2022/12/17 20:22:52;;;;;;;1999.90;999.90;;;;;;;-4.40;81.36;100337.00;10295955;23;20400;-79
2022/12/17 20:26:54;;;;;;;1999.90;999.90;;;;;;;-4.43;80.88;100339.31;10294356;23;20067;-72
2022/12/17 20:30:55;;;;;;;1999.90;999.90;;;;;;;-4.45;81.15;100348.47;10262721;23;20729;-71
2022/12/17 20:34:58;;;;;;;1999.90;999.90;;;;;;;-4.50;80.36;100342.19;10274723;23;20054;-72
2022/12/17 20:39:00;;;;;;;1999.90;999.90;;;;;;;-4.53;80.74;100348.69;10273377;23;20107;-71
2022/12/17 20:43:02;;;;;;;1999.90;999.90;;;;;;;-4.59;80.31;100352.56;10291244;23;20051;-71
2022/12/17 20:47:03;;;;;;;1999.90;999.90;;;;;;;-4.64;80.44;100345.44;10266287;23;20024;-71
2022/12/17 20:51:10;;;;;;;1999.90;999.90;;;;;;;-4.63;81.06;100344.66;10297132;23;20099;-77
2022/12/17 20:55:12;;;;;;;1999.90;999.90;;;;;;;-4.65;80.56;100343.66;10308305;23;20039;-78
2022/12/17 20:59:16;;;;;;;1999.90;999.90;;;;;;;-4.67;80.73;100348.63;10324288;23;20023;-76
2022/12/17 21:03:18;;;;;;;1999.90;999.90;;;;;;;-4.72;79.76;100339.81;10309774;23;20021;-78
2022/12/17 21:07:20;;;;;;;1999.90;999.90;;;;;;;-4.74;80.58;100341.34;10325315;23;20020;-79
2022/12/17 21:11:24;;;;;;;1999.90;999.90;;;;;;;-4.79;80.22;100330.03;10319229;23;20408;-77
2022/12/17 21:15:25;;;;;;;1999.90;999.90;;;;;;;-4.79;80.61;100336.75;10318452;23;20261;-75
2022/12/17 21:19:27;;;;;;;1999.90;999.90;;;;;;;-4.87;80.07;100342.13;10325704;23;20032;-77
2022/12/17 21:23:30;;;;;;;1999.90;999.90;;;;;;;-4.89;80.66;100355.44;10331571;23;19997;-78
2022/12/17 21:27:33;;;;;;;1999.90;999.90;;;;;;;-4.92;79.85;100355.22;10290020;23;20032;-77
2022/12/17 21:31:39;;;;;;;1999.90;999.90;;;;;;;-4.99;80.26;100356.47;10326147;23;20004;-86
2022/12/17 21:35:40;;;;;;;1999.90;999.90;;;;;;;-5.02;80.20;100368.03;10335450;23;20013;-77
2022/12/17 21:39:42;;;;;;;1999.90;999.90;;;;;;;-5.03;80.28;100373.81;10333160;23;20020;-78
2022/12/17 21:43:44;;;;;;;1999.90;999.90;;;;;;;-5.06;80.76;100373.59;10332403;23;20023;-79
2022/12/17 21:47:46;;;;;;;;;;;;;;;-5.11;80.67;100375.81;10331174;23;20001;-81
2022/12/17 21:51:47;;;;;;;1999.90;999.90;;;;;;;-5.14;80.47;100374.72;10330776;23;19911;-78
2022/12/17 21:55:49;;;;;;;1999.90;999.90;;;;;;;-5.20;80.96;100353.25;10331119;23;20021;-79
2022/12/17 21:59:51;;;;;;;;;;;;;;;-5.23;80.62;100357.19;10332945;23;20071;-84
2022/12/17 22:03:56;;;;;;;1999.90;999.90;;;;;;;-5.28;80.78;100353.44;10278429;23;20307;-76
2022/12/17 22:07:58;;;;;;;1999.90;999.90;;;;;;;-5.30;80.78;100352.47;10292914;23;20051;-78
2022/12/17 22:16:20;;;;;;;1999.90;999.90;;;;;;;-5.36;81.39;100352.91;10266810;23;20094;-76
2022/12/17 22:20:22;;;;;;;1999.90;999.90;;;;;;;-5.34;81.05;100363.13;10278378;23;20443;-76
2022/12/17 22:24:24;;;;;;;1999.90;999.90;;;;;;;-5.36;80.82;100355.44;10275005;23;20044;-78
2022/12/17 22:28:25;;;;;;;1999.90;999.90;;;;;;;-5.36;81.30;100354.53;10275635;23;20029;-77
2022/12/17 22:36:47;;;;;;;1999.90;999.90;;;;;;;-5.40;81.52;100368.59;10293451;23;20035;-76
2022/12/17 22:43:28;;;;;;;1999.90;999.90;;;;;;;-5.41;81.50;100378.59;10276429;23;20102;-76
2022/12/17 22:45:50;;;;;;;1999.90;999.90;;;;;;;-5.44;81.05;100385.97;10268831;23;20440;-76
2022/12/17 22:49:54;;;;;;;1999.90;999.90;;;;;;;-5.46;81.97;100390.94;10275684;23;20016;-76
2022/12/17 22:54:00;;;;;;;1999.90;999.90;;;;;;;-5.50;81.40;100389.81;10274220;23;20021;-76
2022/12/17 22:58:02;;;;;;;1999.90;999.90;;;;;;;-5.51;81.36;100390.59;10277232;23;20027;-76
2022/12/17 23:02:03;;;;;;;1999.90;999.90;;;;;;;-5.54;81.25;100390.38;10266466;23;20032;-76
2022/12/17 23:06:10;;;;;;;1999.90;999.90;;;;;;;-5.58;81.54;100385.81;10249220;23;20031;-75
2022/12/17 23:10:13;;;;;;;1999.90;999.90;;;;;;;-5.61;81.53;100387.25;10275545;23;20035;-75
2022/12/17 23:14:15;;;;;;;1999.90;999.90;;;;;;;-5.66;81.84;100394.50;10276495;23;20101;-75
2022/12/17 23:18:16;;;;;;;1999.90;999.90;;;;;;;-5.68;81.49;100383.38;10272478;23;20029;-75
2022/12/17 23:22:18;;;;;;;1999.90;999.90;;;;;;;-5.69;81.65;100393.38;10274855;23;20087;-75
2022/12/17 23:26:25;;;;;;;1999.90;999.90;;;;;;;-5.68;82.44;100388.44;10276628;23;20025;-75
2022/12/17 23:30:27;;;;;;;1999.90;999.90;;;;;;;-5.68;82.25;100393.50;10274028;23;20602;-75
2022/12/17 23:34:28;;;;;;;1999.90;999.90;;;;;;;-5.70;81.89;100377.34;10275700;23;20052;-75
2022/12/17 23:38:30;;;;;;;1999.90;999.90;;;;;;;-5.71;82.23;100377.22;10274954;23;20063;-76
2022/12/17 23:42:31;;;;;;;1999.90;999.90;;;;;;;-5.70;82.30;100378.97;10271084;23;20056;-76
2022/12/17 23:46:33;;;;;;;1999.90;999.90;;;;;;;-5.70;82.09;100374.81;10266678;23;20499;-76
2022/12/17 23:50:34;;;;;;;1999.90;999.90;;;;;;;-5.68;82.01;100372.38;10291076;23;20463;-75
2022/12/17 23:54:36;;;;;;;1999.90;999.90;;;;;;;-5.70;82.41;100371.41;10275079;23;20285;-75
2022/12/17 23:58:39;;;;;;;1999.90;999.90;;;;;;;-5.70;81.82;100369.75;10274194;23;20028;-76
